sensor_id;sensor_type;location;lat;lon;timestamp;pressure;altitude;pressure_sealevel;temperature;humidity
49947;BME280;35839;48.662;13.300;2022-12-18T06:05:07;98879.19;;;-9.45;100.00
49947;BME280;35839;48.662;13.300;2022-12-18T06:07:32;98871.53;;;-9.55;100.00
49947;BME280;35839;48.662;13.300;2022-12-18T06:09:57;98863.56;;;-10.04;100.00
49947;BME280;35839;48.662;13.300;2022-12-18T06:12:23;98860.13;;;-10.13;100.00
49947;BME280;35839;48.662;13.300;2022-12-18T06:14:48;98869.47;;;-10.06;100.00
49947;BME280;35839;48.662;13.300;2022-12-18T06:17:13;98872.66;;;-10.27;100.00
49947;BME280;35839;48.662;13.300;2022-12-18T06:19:38;98879.53;;;-10.15;100.00
49947;BME280;35839;48.662;13.300;2022-12-18T06:22:04;98886.34;;;-10.05;100.00
49947;BME280;35839;48.662;13.300;2022-12-18T06:24:30;98899.97;;;-9.91;100.00
49947;BME280;35839;48.662;13.300;2022-12-18T06:26:55;98893.06;;;-10.13;100.00
49947;BME280;35839;48.662;13.300;2022-12-18T06:29:20;98888.28;;;-9.78;100.00
49947;BME280;35839;48.662;13.300;2022-12-18T06:31:46;98888.72;;;-10.24;100.00
49947;BME280;35839;48.662;13.300;2022-12-18T06:34:11;98886.03;;;-10.44;100.00
49947;BME280;35839;48.662;13.300;2022-12-18T06:36:36;98883.72;;;-10.18;100.00
49947;BME280;35839;48.662;13.300;2022-12-18T06:39:02;98876.72;;;-10.45;100.00
49947;BME280;35839;48.662;13.300;2022-12-18T06:41:27;98891.50;;;-9.96;100.00
49947;BME280;35839;48.662;13.300;2022-12-18T06:43:52;98893.16;;;-10.01;100.00
49947;BME280;35839;48.662;13.300;2022-12-18T06:46:18;98898.84;;;-10.30;100.00
49947;BME280;35839;48.662;13.300;2022-12-18T06:48:46;98901.72;;;-10.75;100.00
49947;BME280;35839;48.662;13.300;2022-12-18T06:51:12;98903.03;;;-10.32;100.00
49947;BME280;35839;48.662;13.300;2022-12-18T06:53:37;98894.59;;;-10.32;100.00
49947;BME280;35839;48.662;13.300;2022-12-18T06:56:05;98898.69;;;-10.42;100.00
49947;BME280;35839;48.662;13.300;2022-12-18T06:58:30;98901.22;;;-10.44;100.00
49947;BME280;35839;48.662;13.300;2022-12-18T07:01:03;98890.22;;;-10.44;100.00
49947;BME280;35839;48.662;13.300;2022-12-18T07:03:31;98894.59;;;-10.32;100.00
49947;BME280;35839;48.662;13.300;2022-12-18T07:05:56;98895.41;;;-10.33;100.00
49947;BME280;35839;48.662;13.300;2022-12-18T07:08:21;98895.13;;;-10.63;100.00
49947;BME280;35839;48.662;13.300;2022-12-18T07:10:46;98895.03;;;-10.72;100.00
49947;BME280;35839;48.662;13.300;2022-12-18T07:13:14;98898.41;;;-10.70;100.00
49947;BME280;35839;48.662;13.300;2022-12-18T07:15:40;98895.28;;;-10.47;100.00
49947;BME280;35839;48.662;13.300;2022-12-18T07:18:05;98904.31;;;-10.68;100.00
49947;BME280;35839;48.662;13.300;2022-12-18T07:20:30;98913.53;;;-10.76;100.00
49947;BME280;35839;48.662;13.300;2022-12-18T07:22:55;98918.59;;;-10.76;100.00
49947;BME280;35839;48.662;13.300;2022-12-18T07:25:21;98924.00;;;-10.45;100.00
49947;BME280;35839;48.662;13.300;2022-12-18T07:27:46;98930.19;;;-10.15;100.00
49947;BME280;35839;48.662;13.300;2022-12-18T07:30:11;98932.00;;;-10.01;100.00
49947;BME280;35839;48.662;13.300;2022-12-18T07:32:37;98936.22;;;-10.04;100.00
49947;BME280;35839;48.662;13.300;2022-12-18T07:35:02;98939.47;;;-10.16;100.00
49947;BME280;35839;48.662;13.300;2022-12-18T07:37:28;98938.84;;;-10.76;100.00
49947;BME280;35839;48.662;13.300;2022-12-18T07:39:53;98939.88;;;-10.60;100.00
49947;BME280;35839;48.662;13.300;2022-12-18T07:42:18;98941.16;;;-10.91;100.00
49947;BME280;35839;48.662;13.300;2022-12-18T07:44:56;98953.84;;;-10.90;100.00
49947;BME280;35839;48.662;13.300;2022-12-18T07:47:22;98951.34;;;-10.88;100.00
49947;BME280;35839;48.662;13.300;2022-12-18T07:49:47;98954.56;;;-10.98;100.00
49947;BME280;35839;48.662;13.300;2022-12-18T07:52:12;98952.84;;;-10.32;100.00
49947;BME280;35839;48.662;13.300;2022-12-18T07:54:38;98960.00;;;-10.69;100.00
49947;BME280;35839;48.662;13.300;2022-12-18T07:57:04;98965.38;;;-10.43;100.00
49947;BME280;35839;48.662;13.300;2022-12-18T07:59:29;98963.00;;;-10.23;100.00
49947;BME280;35839;48.662;13.300;2022-12-18T08:01:54;98964.78;;;-10.18;100.00
49947;BME280;35839;48.662;13.300;2022-12-18T08:04:20;98961.31;;;-10.26;100.00
49947;BME280;35839;48.662;13.300;2022-12-18T08:06:45;98953.38;;;-9.72;100.00
49947;BME280;35839;48.662;13.300;2022-12-18T08:09:11;98956.03;;;-10.47;100.00
49947;BME280;35839;48.662;13.300;2022-12-18T08:11:36;98956.66;;;-9.86;100.00
49947;BME280;35839;48.662;13.300;2022-12-18T08:14:01;98958.19;;;-10.00;100.00
49947;BME280;35839;48.662;13.300;2022-12-18T08:16:27;98961.63;;;-9.95;100.00
49947;BME280;35839;48.662;13.300;2022-12-18T08:18:53;98969.38;;;-9.81;100.00
49947;BME280;35839;48.662;13.300;2022-12-18T08:21:21;98967.19;;;-9.35;100.00
49947;BME280;35839;48.662;13.300;2022-12-18T08:23:49;98974.69;;;-9.49;100.00
49947;BME280;35839;48.662;13.300;2022-12-18T08:26:14;98970.22;;;-9.81;100.00
49947;BME280;35839;48.662;13.300;2022-12-18T08:28:40;98953.66;;;-9.39;100.00
49947;BME280;35839;48.662;13.300;2022-12-18T08:31:06;98955.13;;;-9.67;100.00
49947;BME280;35839;48.662;13.300;2022-12-18T08:33:32;98949.22;;;-9.63;100.00
49947;BME280;35839;48.662;13.300;2022-12-18T08:36:01;98944.31;;;-9.43;100.00
49947;BME280;35839;48.662;13.300;2022-12-18T08:38:27;98943.38;;;-9.54;100.00
49947;BME280;35839;48.662;13.300;2022-12-18T08:41:04;98941.78;;;-9.40;100.00
49947;BME280;35839;48.662;13.300;2022-12-18T08:43:29;98935.84;;;-9.45;100.00
49947;BME280;35839;48.662;13.300;2022-12-18T08:46:17;98943.28;;;-9.69;100.00
49947;BME280;35839;48.662;13.300;2022-12-18T08:48:42;98955.91;;;-9.72;100.00
49947;BME280;35839;48.662;13.300;2022-12-18T08:51:08;98953.38;;;-9.72;100.00
49947;BME280;35839;48.662;13.300;2022-12-18T08:53:35;98954.28;;;-9.66;100.00
49947;BME280;35839;48.662;13.300;2022-12-18T08:56:00;98966.91;;;-9.70;100.00
49947;BME280;35839;48.662;13.300;2022-12-18T08:58:25;98963.31;;;-9.94;100.00
49947;BME280;35839;48.662;13.300;2022-12-18T09:00:51;98958.59;;;-9.51;100.00
49947;BME280;35839;48.662;13.300;2022-12-18T09:03:18;98962.47;;;-8.78;100.00
49947;BME280;35839;48.662;13.300;2022-12-18T09:05:45;98957.91;;;-9.31;100.00
49947;BME280;35839;48.662;13.300;2022-12-18T09:08:11;98968.03;;;-9.39;100.00
49947;BME280;35839;48.662;13.300;2022-12-18T09:10:44;98974.66;;;-9.55;100.00
49947;BME280;35839;48.662;13.300;2022-12-18T09:13:11;98981.66;;;-9.22;100.00
49947;BME280;35839;48.662;13.300;2022-12-18T09:15:47;98990.19;;;-9.12;100.00
49947;BME280;35839;48.662;13.300;2022-12-18T09:18:14;98986.06;;;-8.95;100.00
49947;BME280;35839;48.662;13.300;2022-12-18T09:20:40;98980.72;;;-9.35;100.00
49947;BME280;35839;48.662;13.300;2022-12-18T09:23:06;98993.44;;;-9.30;100.00
49947;BME280;35839;48.662;13.300;2022-12-18T09:25:32;98993.28;;;-9.53;100.00
49947;BME280;35839;48.662;13.300;2022-12-18T09:28:18;98993.34;;;-9.44;100.00
49947;BME280;35839;48.662;13.300;2022-12-18T09:30:48;98986.50;;;-9.52;100.00
49947;BME280;35839;48.662;13.300;2022-12-18T09:33:14;99000.88;;;-9.53;100.00
49947;BME280;35839;48.662;13.300;2022-12-18T09:35:41;98987.63;;;-9.18;100.00
49947;BME280;35839;48.662;13.300;2022-12-18T09:38:11;98989.66;;;-8.56;100.00
49947;BME280;35839;48.662;13.300;2022-12-18T09:40:49;98986.31;;;-8.47;100.00
49947;BME280;35839;48.662;13.300;2022-12-18T09:43:26;98981.34;;;-7.98;100.00
49947;BME280;35839;48.662;13.300;2022-12-18T09:46:01;98989.81;;;-8.08;100.00
49947;BME280;35839;48.662;13.300;2022-12-18T09:48:34;98973.72;;;-7.99;100.00
49947;BME280;35839;48.662;13.300;2022-12-18T09:51:09;98965.28;;;-7.85;100.00
49947;BME280;35839;48.662;13.300;2022-12-18T09:53:38;98970.38;;;-7.25;100.00
49947;BME280;35839;48.662;13.300;2022-12-18T09:56:07;98956.78;;;-7.24;100.00
49947;BME280;35839;48.662;13.300;2022-12-18T09:58:42;98963.53;;;-6.89;100.00
49947;BME280;35839;48.662;13.300;2022-12-18T10:01:20;98951.63;;;-6.85;100.00
49947;BME280;35839;48.662;13.300;2022-12-18T10:03:46;98937.16;;;-6.79;100.00
49947;BME280;35839;48.662;13.300;2022-12-18T10:06:18;98933.72;;;-6.67;100.00
49947;BME280;35839;48.662;13.300;2022-12-18T10:09:27;98936.16;;;-6.38;100.00
49947;BME280;35839;48.662;13.300;2022-12-18T10:14:46;98945.38;;;-6.13;100.00
49947;BME280;35839;48.662;13.300;2022-12-18T10:17:28;98939.97;;;-5.74;100.00
49947;BME280;35839;48.662;13.300;2022-12-18T10:20:17;98940.19;;;-5.97;100.00
49947;BME280;35839;48.662;13.300;2022-12-18T10:25:35;98923.69;;;-5.56;100.00
49947;BME280;35839;48.662;13.300;2022-12-18T10:28:14;98924.41;;;-4.59;100.00
49947;BME280;35839;48.662;13.300;2022-12-18T10:30:40;98926.19;;;-4.01;100.00
49947;BME280;35839;48.662;13.300;2022-12-18T10:33:11;98915.53;;;-3.73;100.00
49947;BME280;35839;48.662;13.300;2022-12-18T10:35:40;98926.91;;;-3.35;100.00
49947;BME280;35839;48.662;13.300;2022-12-18T10:43:15;98917.84;;;-3.07;100.00
49947;BME280;35839;48.662;13.300;2022-12-18T10:45:41;98916.84;;;-2.98;100.00
49947;BME280;35839;48.662;13.300;2022-12-18T10:48:20;98905.50;;;-3.86;100.00
49947;BME280;35839;48.662;13.300;2022-12-18T10:50:50;98910.53;;;-4.40;100.00
49947;BME280;35839;48.662;13.300;2022-12-18T10:53:26;98907.31;;;-4.54;100.00
49947;BME280;35839;48.662;13.300;2022-12-18T10:55:54;98901.31;;;-4.53;100.00
49947;BME280;35839;48.662;13.300;2022-12-18T10:58:24;98901.31;;;-4.53;100.00
49947;BME280;35839;48.662;13.300;2022-12-18T11:01:17;98898.22;;;-4.77;100.00
49947;BME280;35839;48.662;13.300;2022-12-18T11:06:22;98901.66;;;-5.66;100.00
49947;BME280;35839;48.662;13.300;2022-12-18T11:09:24;98901.91;;;-5.95;100.00
49947;BME280;35839;48.662;13.300;2022-12-18T11:11:56;98892.44;;;-5.82;100.00
49947;BME280;35839;48.662;13.300;2022-12-18T11:14:24;98893.97;;;-5.64;100.00
49947;BME280;35839;48.662;13.300;2022-12-18T11:16:51;98890.75;;;-5.86;100.00
49947;BME280;35839;48.662;13.300;2022-12-18T11:19:36;98883.94;;;-5.87;100.00
49947;BME280;35839;48.662;13.300;2022-12-18T11:22:18;98883.94;;;-5.87;100.00
49947;BME280;35839;48.662;13.300;2022-12-18T11:24:53;98867.63;;;-5.65;100.00
49947;BME280;35839;48.662;13.300;2022-12-18T11:27:20;98863.44;;;-5.72;100.00
49947;BME280;35839;48.662;13.300;2022-12-18T11:29:45;98855.09;;;-5.89;100.00
49947;BME280;35839;48.662;13.300;2022-12-18T11:32:31;98856.66;;;-5.76;100.00
49947;BME280;35839;48.662;13.300;2022-12-18T11:35:03;98858.28;;;-5.66;100.00
49947;BME280;35839;48.662;13.300;2022-12-18T11:37:34;98858.22;;;-5.60;100.00
49947;BME280;35839;48.662;13.300;2022-12-18T11:40:30;98851.25;;;-5.44;100.00
49947;BME280;35839;48.662;13.300;2022-12-18T11:43:04;98852.34;;;-5.69;100.00
49947;BME280;35839;48.662;13.300;2022-12-18T11:45:35;98849.66;;;-5.56;100.00
49947;BME280;35839;48.662;13.300;2022-12-18T11:53:01;98853.88;;;-5.50;100.00
49947;BME280;35839;48.662;13.300;2022-12-18T11:55:39;98846.06;;;-5.35;100.00
49947;BME280;35839;48.662;13.300;2022-12-18T12:01:03;98853.66;;;-5.28;100.00
49947;BME280;35839;48.662;13.300;2022-12-18T12:03:53;98857.19;;;-5.42;100.00
49947;BME280;35839;48.662;13.300;2022-12-18T12:06:33;98849.19;;;-5.08;100.00
49947;BME280;35839;48.662;13.300;2022-12-18T12:09:08;98847.38;;;-5.01;100.00
49947;BME280;35839;48.662;13.300;2022-12-18T12:14:39;98838.06;;;-5.04;100.00
49947;BME280;35839;48.662;13.300;2022-12-18T12:20:25;98845.72;;;-5.02;100.00
49947;BME280;35839;48.662;13.300;2022-12-18T12:23:02;98847.44;;;-5.04;100.00
49947;BME280;35839;48.662;13.300;2022-12-18T12:25:37;98856.72;;;-4.97;100.00
49947;BME280;35839;48.662;13.300;2022-12-18T12:31:13;98865.25;;;-5.00;100.00
49947;BME280;35839;48.662;13.300;2022-12-18T12:37:29;98863.81;;;-4.50;100.00
49947;BME280;35839;48.662;13.300;2022-12-18T12:39:27;98859.72;;;-4.63;100.00
49947;BME280;35839;48.662;13.300;2022-12-18T12:41:56;98847.09;;;-4.77;100.00
49947;BME280;35839;48.662;13.300;2022-12-18T12:44:44;98864.00;;;-4.67;100.00
49947;BME280;35839;48.662;13.300;2022-12-18T12:47:19;98870.41;;;-5.03;100.00
49947;BME280;35839;48.662;13.300;2022-12-18T12:49:46;98866.25;;;-5.10;100.00
49947;BME280;35839;48.662;13.300;2022-12-18T12:52:27;98863.34;;;-4.81;100.00
49947;BME280;35839;48.662;13.300;2022-12-18T12:54:54;98863.53;;;-4.98;100.00
49947;BME280;35839;48.662;13.300;2022-12-18T12:57:24;98869.34;;;-4.85;100.00
49947;BME280;35839;48.662;13.300;2022-12-18T12:59:57;98867.59;;;-4.80;100.00
49947;BME280;35839;48.662;13.300;2022-12-18T13:05:40;98847.09;;;-4.75;100.00
49947;BME280;35839;48.662;13.300;2022-12-18T13:08:10;98841.91;;;-4.71;100.00
49947;BME280;35839;48.662;13.300;2022-12-18T13:10:41;98837.97;;;-4.96;100.00
49947;BME280;35839;48.662;13.300;2022-12-18T13:13:11;98833.66;;;-4.94;100.00
49947;BME280;35839;48.662;13.300;2022-12-18T13:15:43;98832.81;;;-4.93;100.00
49947;BME280;35839;48.662;13.300;2022-12-18T13:20:42;98829.38;;;-4.91;100.00
49947;BME280;35839;48.662;13.300;2022-12-18T13:25:50;98840.50;;;-4.93;100.00
49947;BME280;35839;48.662;13.300;2022-12-18T13:30:48;98833.94;;;-5.16;100.00
49947;BME280;35839;48.662;13.300;2022-12-18T13:38:25;98825.88;;;-4.83;100.00
49947;BME280;35839;48.662;13.300;2022-12-18T13:41:01;98817.50;;;-4.93;100.00
49947;BME280;35839;48.662;13.300;2022-12-18T13:43:29;98820.38;;;-5.19;100.00
49947;BME280;35839;48.662;13.300;2022-12-18T13:46:05;98811.66;;;-5.04;100.00
49947;BME280;35839;48.662;13.300;2022-12-18T13:48:50;98822.66;;;-4.99;100.00
49947;BME280;35839;48.662;13.300;2022-12-18T13:51:17;98813.28;;;-4.99;100.00
49947;BME280;35839;48.662;13.300;2022-12-18T13:53:48;98823.56;;;-5.02;100.00
49947;BME280;35839;48.662;13.300;2022-12-18T13:56:23;98824.50;;;-5.09;100.00
49947;BME280;35839;48.662;13.300;2022-12-18T13:59:12;98823.44;;;-4.94;100.00
49947;BME280;35839;48.662;13.300;2022-12-18T14:02:14;98821.72;;;-4.89;100.00
49947;BME280;35839;48.662;13.300;2022-12-18T14:04:40;98814.72;;;-4.75;100.00
49947;BME280;35839;48.662;13.300;2022-12-18T14:07:13;98817.50;;;-4.95;100.00
49947;BME280;35839;48.662;13.300;2022-12-18T14:10:02;98809.16;;;-5.09;100.00
49947;BME280;35839;48.662;13.300;2022-12-18T14:12:33;98807.59;;;-5.21;100.00
49947;BME280;35839;48.662;13.300;2022-12-18T14:15:33;98803.28;;;-5.16;100.00
49947;BME280;35839;48.662;13.300;2022-12-18T14:18:22;98816.00;;;-5.08;100.00
49947;BME280;35839;48.662;13.300;2022-12-18T14:20:48;98818.59;;;-5.13;100.00
49947;BME280;35839;48.662;13.300;2022-12-18T14:23:37;98824.84;;;-5.40;100.00
49947;BME280;35839;48.662;13.300;2022-12-18T14:26:25;98832.25;;;-5.20;100.00
49947;BME280;35839;48.662;13.300;2022-12-18T14:28:53;98841.00;;;-5.39;100.00
49947;BME280;35839;48.662;13.300;2022-12-18T14:31:27;98837.59;;;-5.38;100.00
49947;BME280;35839;48.662;13.300;2022-12-18T14:33:53;98835.06;;;-5.41;100.00
49947;BME280;35839;48.662;13.300;2022-12-18T14:36:21;98840.22;;;-5.46;100.00
49947;BME280;35839;48.662;13.300;2022-12-18T14:38:52;98851.34;;;-5.53;100.00
49947;BME280;35839;48.662;13.300;2022-12-18T14:41:20;98840.19;;;-5.44;100.00
49947;BME280;35839;48.662;13.300;2022-12-18T14:43:47;98838.59;;;-5.53;100.00
49947;BME280;35839;48.662;13.300;2022-12-18T14:46:37;98842.91;;;-5.60;100.00
49947;BME280;35839;48.662;13.300;2022-12-18T14:49:29;98854.97;;;-5.77;100.00
49947;BME280;35839;48.662;13.300;2022-12-18T14:51:57;98860.13;;;-5.83;100.00
49947;BME280;35839;48.662;13.300;2022-12-18T14:54:24;98853.50;;;-6.03;100.00
49947;BME280;35839;48.662;13.300;2022-12-18T14:57:05;98852.63;;;-6.02;100.00
49947;BME280;35839;48.662;13.300;2022-12-18T14:59:31;98848.91;;;-6.83;100.00
49947;BME280;35839;48.662;13.300;2022-12-18T15:04:33;98848.03;;;-6.80;100.00
49947;BME280;35839;48.662;13.300;2022-12-18T15:07:16;98848.03;;;-6.80;100.00
49947;BME280;35839;48.662;13.300;2022-12-18T15:09:44;98839.56;;;-6.85;100.00
49947;BME280;35839;48.662;13.300;2022-12-18T15:12:40;98837.88;;;-6.88;100.00
49947;BME280;35839;48.662;13.300;2022-12-18T15:18:12;98848.97;;;-6.96;100.00
49947;BME280;35839;48.662;13.300;2022-12-18T15:20:59;98826.03;;;-6.96;100.00
49947;BME280;35839;48.662;13.300;2022-12-18T15:26:09;98840.44;;;-6.95;100.00
49947;BME280;35839;48.662;13.300;2022-12-18T15:28:53;98840.50;;;-7.03;100.00
49947;BME280;35839;48.662;13.300;2022-12-18T15:36:18;98838.81;;;-7.10;100.00
49947;BME280;35839;48.662;13.300;2022-12-18T15:38:51;98838.78;;;-7.04;100.00
49947;BME280;35839;48.662;13.300;2022-12-18T15:41:19;98833.69;;;-7.03;100.00
49947;BME280;35839;48.662;13.300;2022-12-18T15:43:45;98833.72;;;-7.13;100.00
49947;BME280;35839;48.662;13.300;2022-12-18T15:46:14;98821.84;;;-7.11;100.00
49947;BME280;35839;48.662;13.300;2022-12-18T15:51:16;98837.16;;;-7.24;100.00
49947;BME280;35839;48.662;13.300;2022-12-18T15:53:42;98843.94;;;-7.19;100.00
49947;BME280;35839;48.662;13.300;2022-12-18T15:56:12;98837.19;;;-7.33;100.00
49947;BME280;35839;48.662;13.300;2022-12-18T15:58:56;98842.28;;;-7.36;100.00
49947;BME280;35839;48.662;13.300;2022-12-18T16:01:23;98845.66;;;-7.37;100.00
49947;BME280;35839;48.662;13.300;2022-12-18T16:03:49;98847.44;;;-7.64;100.00
49947;BME280;35839;48.662;13.300;2022-12-18T16:06:14;98845.75;;;-7.61;100.00
49947;BME280;35839;48.662;13.300;2022-12-18T16:08:39;98843.22;;;-7.75;100.00
49947;BME280;35839;48.662;13.300;2022-12-18T16:11:05;98834.75;;;-7.91;100.00
49947;BME280;35839;48.662;13.300;2022-12-18T16:13:33;98832.16;;;-7.70;100.00
49947;BME280;35839;48.662;13.300;2022-12-18T16:16:00;98838.97;;;-7.69;100.00
49947;BME280;35839;48.662;13.300;2022-12-18T16:18:25;98831.34;;;-7.73;100.00
49947;BME280;35839;48.662;13.300;2022-12-18T16:20:50;98828.81;;;-7.78;100.00
49947;BME280;35839;48.662;13.300;2022-12-18T16:23:16;98824.56;;;-7.77;100.00
49947;BME280;35839;48.662;13.300;2022-12-18T16:25:41;98829.63;;;-7.79;100.00
49947;BME280;35839;48.662;13.300;2022-12-18T16:28:06;98839.78;;;-7.59;100.00
49947;BME280;35839;48.662;13.300;2022-12-18T16:30:32;98844.03;;;-7.58;100.00
49947;BME280;35839;48.662;13.300;2022-12-18T16:32:58;98843.19;;;-7.63;100.00
49947;BME280;35839;48.662;13.300;2022-12-18T16:35:24;98833.84;;;-7.47;100.00
49947;BME280;35839;48.662;13.300;2022-12-18T16:37:50;98832.13;;;-7.48;100.00
49947;BME280;35839;48.662;13.300;2022-12-18T16:40:16;98834.69;;;-7.50;100.00
49947;BME280;35839;48.662;13.300;2022-12-18T16:42:43;98845.72;;;-7.55;100.00
49947;BME280;35839;48.662;13.300;2022-12-18T16:45:12;98844.03;;;-7.55;100.00
49947;BME280;35839;48.662;13.300;2022-12-18T16:47:37;98840.66;;;-7.74;100.00
49947;BME280;35839;48.662;13.300;2022-12-18T16:50:04;98837.25;;;-7.84;100.00
49947;BME280;35839;48.662;13.300;2022-12-18T16:52:29;98838.94;;;-7.72;100.00
49947;BME280;35839;48.662;13.300;2022-12-18T16:54:55;98836.44;;;-7.82;100.00
49947;BME280;35839;48.662;13.300;2022-12-18T16:57:21;98844.06;;;-7.87;100.00
49947;BME280;35839;48.662;13.300;2022-12-18T16:59:47;98841.53;;;-8.19;100.00
49947;BME280;35839;48.662;13.300;2022-12-18T17:02:23;98843.19;;;-8.41;100.00
49947;BME280;35839;48.662;13.300;2022-12-18T17:04:52;98840.63;;;-8.63;100.00
49947;BME280;35839;48.662;13.300;2022-12-18T17:07:18;98832.19;;;-8.17;100.00
49947;BME280;35839;48.662;13.300;2022-12-18T17:09:43;98847.44;;;-8.19;100.00
49947;BME280;35839;48.662;13.300;2022-12-18T17:12:09;98851.69;;;-8.27;100.00
49947;BME280;35839;48.662;13.300;2022-12-18T17:14:35;98847.44;;;-8.50;100.00
49947;BME280;35839;48.662;13.300;2022-12-18T17:17:01;98851.69;;;-8.45;100.00
49947;BME280;35839;48.662;13.300;2022-12-18T17:19:27;98853.34;;;-8.54;100.00
49947;BME280;35839;48.662;13.300;2022-12-18T17:21:52;98859.25;;;-8.64;100.00
49947;BME280;35839;48.662;13.300;2022-12-18T17:24:18;98853.38;;;-8.24;100.00
49947;BME280;35839;48.662;13.300;2022-12-18T17:26:44;98846.59;;;-8.45;100.00
49947;BME280;35839;48.662;13.300;2022-12-18T17:29:15;98849.97;;;-8.37;100.00
49947;BME280;35839;48.662;13.300;2022-12-18T17:31:41;98847.44;;;-8.40;100.00
49947;BME280;35839;48.662;13.300;2022-12-18T17:34:08;98846.59;;;-8.29;100.00
49947;BME280;35839;48.662;13.300;2022-12-18T17:36:34;98848.28;;;-8.34;100.00
49947;BME280;35839;48.662;13.300;2022-12-18T17:39:00;98843.19;;;-8.37;100.00
49947;BME280;35839;48.662;13.300;2022-12-18T17:41:27;98851.69;;;-8.32;100.00
49947;BME280;35839;48.662;13.300;2022-12-18T17:43:58;98842.38;;;-8.22;100.00
49947;BME280;35839;48.662;13.300;2022-12-18T17:46:24;98839.81;;;-8.36;100.00
49947;BME280;35839;48.662;13.300;2022-12-18T17:48:51;98844.03;;;-8.61;100.00
49947;BME280;35839;48.662;13.300;2022-12-18T17:51:17;98838.84;;;-8.92;100.00
49947;BME280;35839;48.662;13.300;2022-12-18T17:53:43;98837.16;;;-9.02;100.00
49947;BME280;35839;48.662;13.300;2022-12-18T17:56:12;98841.47;;;-8.72;100.00
49947;BME280;35839;48.662;13.300;2022-12-18T17:58:38;98843.16;;;-8.75;100.00
49947;BME280;35839;48.662;13.300;2022-12-18T18:01:05;98844.78;;;-8.91;100.00
49947;BME280;35839;48.662;13.300;2022-12-18T18:03:31;98845.66;;;-8.84;100.00
49947;BME280;35839;48.662;13.300;2022-12-18T18:06:00;98835.53;;;-8.72;100.00
49947;BME280;35839;48.662;13.300;2022-12-18T18:08:27;98838.91;;;-8.75;100.00
49947;BME280;35839;48.662;13.300;2022-12-18T18:10:53;98843.97;;;-8.85;100.00
49947;BME280;35839;48.662;13.300;2022-12-18T18:13:24;98850.69;;;-8.94;100.00
49947;BME280;35839;48.662;13.300;2022-12-18T18:16:09;98843.97;;;-8.85;100.00
49947;BME280;35839;48.662;13.300;2022-12-18T18:18:35;98843.88;;;-9.07;100.00
49947;BME280;35839;48.662;13.300;2022-12-18T18:21:04;98848.06;;;-9.15;100.00
49947;BME280;35839;48.662;13.300;2022-12-18T18:23:30;98836.28;;;-9.02;100.00
49947;BME280;35839;48.662;13.300;2022-12-18T18:26:04;98841.41;;;-8.84;100.00
49947;BME280;35839;48.662;13.300;2022-12-18T18:28:29;98838.88;;;-8.82;100.00
49947;BME280;35839;48.662;13.300;2022-12-18T18:30:55;98833.72;;;-9.07;100.00
49947;BME280;35839;48.662;13.300;2022-12-18T18:33:20;98829.56;;;-8.86;100.00
49947;BME280;35839;48.662;13.300;2022-12-18T18:35:46;98828.63;;;-9.10;100.00
49947;BME280;35839;48.662;13.300;2022-12-18T18:38:11;98839.56;;;-9.29;100.00
49947;BME280;35839;48.662;13.300;2022-12-18T18:40:36;98841.06;;;-9.62;100.00
49947;BME280;35839;48.662;13.300;2022-12-18T18:43:02;98829.50;;;-9.00;100.00
49947;BME280;35839;48.662;13.300;2022-12-18T18:45:27;98833.66;;;-9.21;100.00
49947;BME280;35839;48.662;13.300;2022-12-18T18:47:52;98837.72;;;-9.52;100.00
49947;BME280;35839;48.662;13.300;2022-12-18T18:50:17;98839.28;;;-9.76;100.00
49947;BME280;35839;48.662;13.300;2022-12-18T18:52:43;98837.03;;;-9.29;100.00
49947;BME280;35839;48.662;13.300;2022-12-18T18:55:09;98824.31;;;-9.33;100.00
49947;BME280;35839;48.662;13.300;2022-12-18T18:57:34;98835.38;;;-9.12;100.00
49947;BME280;35839;48.662;13.300;2022-12-18T19:00:00;98830.25;;;-9.29;100.00
49947;BME280;35839;48.662;13.300;2022-12-18T19:02:25;98823.47;;;-9.31;100.00
49947;BME280;35839;48.662;13.300;2022-12-18T19:04:50;98842.06;;;-9.36;100.00
49947;BME280;35839;48.662;13.300;2022-12-18T19:07:16;98833.53;;;-9.50;100.00
49947;BME280;35839;48.662;13.300;2022-12-18T19:09:41;98820.06;;;-9.34;100.00
49947;BME280;35839;48.662;13.300;2022-12-18T19:12:08;98818.38;;;-9.38;100.00
49947;BME280;35839;48.662;13.300;2022-12-18T19:14:53;98825.06;;;-9.49;100.00
49947;BME280;35839;48.662;13.300;2022-12-18T19:17:18;98817.50;;;-9.41;100.00
49947;BME280;35839;48.662;13.300;2022-12-18T19:19:44;98829.22;;;-9.63;100.00
49947;BME280;35839;48.662;13.300;2022-12-18T19:22:09;98831.59;;;-9.86;100.00
49947;BME280;35839;48.662;13.300;2022-12-18T19:24:35;98837.47;;;-9.93;100.00
49947;BME280;35839;48.662;13.300;2022-12-18T19:27:01;98839.16;;;-9.92;100.00
49947;BME280;35839;48.662;13.300;2022-12-18T19:29:26;98839.16;;;-9.91;100.00
49947;BME280;35839;48.662;13.300;2022-12-18T19:31:51;98838.28;;;-9.96;100.00
49947;BME280;35839;48.662;13.300;2022-12-18T19:34:17;98828.41;;;-9.58;100.00
49947;BME280;35839;48.662;13.300;2022-12-18T19:36:42;98828.44;;;-9.53;100.00
49947;BME280;35839;48.662;13.300;2022-12-18T19:39:10;98814.06;;;-9.51;100.00
49947;BME280;35839;48.662;13.300;2022-12-18T19:41:36;98814.09;;;-9.45;100.00
49947;BME280;35839;48.662;13.300;2022-12-18T19:44:02;98816.72;;;-9.23;100.00
49947;BME280;35839;48.662;13.300;2022-12-18T19:46:27;98823.38;;;-9.53;100.00
49947;BME280;35839;48.662;13.300;2022-12-18T19:48:53;98831.56;;;-9.91;100.00
49947;BME280;35839;48.662;13.300;2022-12-18T19:51:23;98829.72;;;-10.10;100.00
49947;BME280;35839;48.662;13.300;2022-12-18T19:53:50;98819.47;;;-10.29;100.00
49947;BME280;35839;48.662;13.300;2022-12-18T19:56:19;98818.66;;;-10.22;100.00
49947;BME280;35839;48.662;13.300;2022-12-18T19:58:45;98818.25;;;-9.62;100.00
49947;BME280;35839;48.662;13.300;2022-12-18T20:01:13;98819.28;;;-9.22;100.00